Time;durP1;ratioP1;P1;durP2;ratioP2;P2;SDS_P1;SDS_P2;PMS_P1;PMS_P2;Temp;Humidity;BMP_temperature;BMP_pressure;BME280_temperature;BME280_humidity;BME280_pressure;Samples;Min_cycle;Max_cycle;Signal;HPM_P1;HPM_P2
2021/12/26 00:00:58;;;;;;;4.90;2.87;;;;;;;2.09;69.38;99404.59;4331086;33;33000;-86
2021/12/26 00:03:29;;;;;;;5.57;3.33;;;;;;;2.41;68.11;99393.63;4348119;33;33817;-86
2021/12/26 00:06:03;;;;;;;8.73;3.47;;;;;;;2.21;68.33;99401.78;4311218;33;32831;-85
2021/12/26 00:08:33;;;;;;;7.95;3.58;;;;;;;1.77;69.86;99405.94;4342054;33;32711;-86
2021/12/26 00:11:01;;;;;;;5.72;3.50;;;;;;;2.21;68.39;99388.75;4336722;33;34394;-86
2021/12/26 00:13:30;;;;;;;8.50;3.00;;;;;;;2.34;67.85;99397.25;4327316;33;34038;-84
2021/12/26 00:15:59;;;;;;;11.77;3.75;;;;;;;1.98;68.77;99399.53;4327782;33;32221;-85
2021/12/26 00:18:27;;;;;;;6.95;3.08;;;;;;;2.04;68.79;99398.56;4328794;33;33219;-84
2021/12/26 00:20:55;;;;;;;6.22;2.85;;;;;;;2.11;68.40;99397.59;4333000;33;33969;-88
2021/12/26 00:23:23;;;;;;;6.03;2.67;;;;;;;2.11;68.07;99392.41;4340788;33;33954;-88
2021/12/26 00:25:50;;;;;;;4.60;2.25;;;;;;;1.60;69.52;99400.09;4315760;33;32482;-88
2021/12/26 00:28:18;;;;;;;7.68;3.53;;;;;;;1.88;69.01;99403.16;4333448;33;33448;-88
2021/12/26 00:30:46;;;;;;;6.78;2.83;;;;;;;2.17;67.66;99402.72;4338075;32;33021;-88
2021/12/26 00:33:14;;;;;;;3.45;2.35;;;;;;;1.92;68.69;99398.78;4330469;32;32864;-88
2021/12/26 00:35:41;;;;;;;4.12;2.20;;;;;;;1.91;68.64;99397.06;4340016;33;32933;-88
2021/12/26 00:38:10;;;;;;;6.18;2.92;;;;;;;2.17;67.77;99407.91;4334638;32;34296;-89
2021/12/26 00:40:37;;;;;;;5.50;2.53;;;;;;;1.88;68.83;99408.38;4330545;32;33159;-89
2021/12/26 00:43:05;;;;;;;4.22;2.17;;;;;;;2.31;67.59;99397.28;4333405;33;33630;-85
2021/12/26 00:45:34;;;;;;;7.97;3.05;;;;;;;2.33;67.42;99399.84;4315615;32;32585;-85
2021/12/26 00:48:03;;;;;;;6.68;3.62;;;;;;;2.55;66.73;99401.22;4332668;32;33127;-85
2021/12/26 00:50:32;;;;;;;12.23;3.70;;;;;;;2.42;66.73;99395.38;4339601;32;33912;-89
2021/12/26 00:53:01;;;;;;;5.80;2.95;;;;;;;2.17;67.93;99394.91;4322783;32;32869;-88
2021/12/26 00:55:29;;;;;;;4.65;2.85;;;;;;;2.02;68.25;99408.16;4325109;32;33527;-88
2021/12/26 00:57:57;;;;;;;9.30;2.78;;;;;;;2.36;67.24;99405.00;4336422;32;32747;-88
2021/12/26 01:00:30;;;;;;;4.43;2.78;;;;;;;2.23;67.73;99406.97;4335351;32;32932;-87
2021/12/26 01:03:01;;;;;;;4.35;2.40;;;;;;;1.86;69.08;99410.16;4323608;32;32527;-86
2021/12/26 01:05:30;;;;;;;4.35;2.87;;;;;;;2.21;68.00;99407.00;4330324;32;32515;-87
2021/12/26 01:08:00;;;;;;;5.45;2.50;;;;;;;1.99;68.52;99410.81;4342858;32;33293;-87
2021/12/26 01:10:38;;;;;;;5.32;3.50;;;;;;;1.86;69.47;99409.28;4327002;32;32871;-86
2021/12/26 01:13:15;;;;;;;6.85;3.53;;;;;;;1.78;69.74;99414.59;4337522;32;32832;-86
2021/12/26 01:15:48;;;;;;;3.90;2.55;;;;;;;1.28;71.59;99418.72;4336979;32;33592;-86
2021/12/26 01:18:17;;;;;;;8.52;2.42;;;;;;;1.22;71.36;99422.25;4326964;32;33075;-87
2021/12/26 01:20:56;;;;;;;6.12;2.45;;;;;;;1.60;70.25;99418.31;4341555;32;33688;-88
2021/12/26 01:23:26;;;;;;;5.35;2.75;;;;;;;1.73;69.28;99422.47;4320174;32;34169;-90
2021/12/26 01:25:55;;;;;;;6.30;3.08;;;;;;;1.47;70.21;99421.94;4327904;32;32629;-87
2021/12/26 01:28:27;;;;;;;9.63;3.87;;;;;;;2.08;68.17;99421.09;4325832;32;33068;-87
2021/12/26 01:30:57;;;;;;;6.82;2.25;;;;;;;1.88;67.84;99428.34;4329844;32;33536;-88
2021/12/26 01:33:26;;;;;;;5.80;2.42;;;;;;;1.83;68.06;99430.16;4332076;32;32662;-88
2021/12/26 01:35:54;;;;;;;3.85;1.92;;;;;;;1.71;68.68;99423.34;4323493;32;33384;-88
2021/12/26 01:38:23;;;;;;;3.33;2.25;;;;;;;1.47;69.71;99435.84;4339028;32;33798;-88
2021/12/26 01:40:56;;;;;;;2.83;1.80;;;;;;;1.09;71.38;99444.06;4335286;32;33592;-88
2021/12/26 01:43:30;;;;;;;5.62;2.12;;;;;;;0.88;71.68;99439.97;4329213;32;35158;-88
2021/12/26 01:45:58;;;;;;;9.95;2.58;;;;;;;1.11;70.78;99433.69;4328733;32;32984;-89
2021/12/26 01:48:26;;;;;;;4.53;1.50;;;;;;;1.24;70.60;99430.94;4323324;32;33556;-88
2021/12/26 01:50:55;;;;;;;5.80;2.40;;;;;;;1.48;69.48;99428.91;4334559;32;33080;-88
2021/12/26 01:53:26;;;;;;;2.78;1.83;;;;;;;1.36;70.06;99422.09;4330653;32;32551;-88
2021/12/26 01:55:54;;;;;;;3.72;2.17;;;;;;;1.28;70.32;99432.62;4327521;32;32355;-88
2021/12/26 01:58:28;;;;;;;3.08;1.98;;;;;;;1.53;69.18;99430.56;4342804;32;33234;-89
2021/12/26 02:01:06;;;;;;;3.53;1.87;;;;;;;1.47;69.54;99427.16;4343394;32;34010;-89
2021/12/26 02:03:35;;;;;;;4.20;2.45;;;;;;;1.66;69.39;99427.78;4337802;32;31873;-90
2021/12/26 02:06:05;;;;;;;3.55;1.90;;;;;;;1.11;70.39;99418.94;4317718;32;32584;-90
2021/12/26 02:08:35;;;;;;;4.82;2.85;;;;;;;1.64;69.70;99417.41;4330447;32;32359;-90
2021/12/26 02:11:04;;;;;;;9.38;2.30;;;;;;;2.13;67.72;99408.84;4328194;32;34990;-90
2021/12/26 02:13:37;;;;;;;6.03;2.62;;;;;;;2.14;67.53;99414.94;4331778;32;32023;-87
2021/12/26 02:16:08;;;;;;;4.12;2.72;;;;;;;1.86;68.81;99414.50;4335274;32;33338;-86
2021/12/26 02:18:37;;;;;;;5.80;2.87;;;;;;;1.59;69.32;99413.13;4340893;32;32856;-87
2021/12/26 02:23:55;;;;;;;3.95;2.60;;;;;;;1.93;68.55;99414.37;4337453;32;33626;-87
2021/12/26 02:29:10;;;;;;;5.12;2.42;;;;;;;2.20;67.58;99420.06;4332055;33;33661;-88
2021/12/26 02:31:38;;;;;;;11.93;3.00;;;;;;;2.50;66.04;99416.91;4335106;32;32602;-87
2021/12/26 02:34:06;;;;;;;4.40;3.03;;;;;;;2.44;66.53;99421.41;4338008;32;33558;-87
2021/12/26 02:36:34;;;;;;;8.90;3.05;;;;;;;2.40;66.39;99415.38;4340496;32;33635;-87
2021/12/26 02:39:03;;;;;;;3.50;2.58;;;;;;;2.68;65.94;99407.94;4327239;33;33398;-87
2021/12/26 02:41:31;;;;;;;4.35;2.47;;;;;;;2.48;65.58;99420.47;4352633;32;33608;-87
2021/12/26 02:43:59;;;;;;;5.68;2.90;;;;;;;2.52;65.56;99427.34;4328218;33;32502;-86
2021/12/26 02:46:28;;;;;;;6.05;2.87;;;;;;;2.31;66.08;99420.72;4339585;32;31783;-87
2021/12/26 02:48:57;;;;;;;4.10;2.40;;;;;;;2.76;63.96;99406.06;4328015;33;33442;-87
2021/12/26 02:51:25;;;;;;;7.00;2.28;;;;;;;2.54;64.23;99415.13;4338020;33;33776;-87
2021/12/26 02:53:53;;;;;;;6.78;2.65;;;;;;;2.80;63.11;99412.94;4339669;33;33984;-88
2021/12/26 02:56:21;;;;;;;3.25;2.17;;;;;;;2.32;63.89;99419.84;4328058;33;32969;-88
2021/12/26 02:58:49;;;;;;;3.03;1.98;;;;;;;2.40;64.08;99411.91;4338524;33;32635;-88
2021/12/26 03:01:20;;;;;;;2.22;1.60;;;;;;;2.69;63.19;99412.25;4327599;33;33276;-87
2021/12/26 03:03:48;;;;;;;3.47;1.87;;;;;;;2.65;63.52;99420.16;4317408;33;33677;-90
2021/12/26 03:09:07;;;;;;;4.68;2.25;;;;;;;2.86;61.92;99417.16;4339229;33;33249;-89
2021/12/26 03:11:38;;;;;;;1.85;1.35;;;;;;;2.99;61.41;99420.38;4343947;33;33002;-89
2021/12/26 03:14:06;;;;;;;3.00;1.70;;;;;;;2.36;62.92;99431.06;4337530;33;32820;-88
2021/12/26 03:16:34;;;;;;;3.22;1.50;;;;;;;2.62;62.04;99426.28;4341155;33;33180;-89
2021/12/26 03:19:10;;;;;;;1.98;1.12;;;;;;;2.95;60.87;99423.97;4354751;32;33438;-89
2021/12/26 03:21:38;;;;;;;3.33;1.60;;;;;;;2.96;60.63;99417.84;4341689;33;34051;-89
2021/12/26 03:24:07;;;;;;;2.28;1.25;;;;;;;2.98;59.70;99421.28;4343376;33;33149;-92
2021/12/26 03:27:03;;;;;;;1.80;1.52;;;;;;;2.46;61.38;99427.44;4360010;32;33634;-91
2021/12/26 03:29:47;;;;;;;1.33;1.10;;;;;;;2.70;61.60;99424.38;4362055;32;32578;-89
2021/12/26 03:32:17;;;;;;;3.92;1.08;;;;;;;3.07;59.47;99414.13;4351428;32;33487;-88
2021/12/26 03:34:46;;;;;;;2.50;1.60;;;;;;;2.70;60.33;99413.09;4326148;33;32252;-88
2021/12/26 03:37:14;;;;;;;4.22;1.48;;;;;;;2.79;59.93;99416.41;4327126;33;32079;-89
2021/12/26 03:39:42;;;;;;;1.98;1.17;;;;;;;3.02;59.39;99409.91;4330103;33;32369;-89
2021/12/26 03:42:11;;;;;;;1.25;1.10;;;;;;;3.11;59.35;99412.34;4308589;33;34123;-91
2021/12/26 03:45:01;;;;;;;2.15;1.02;;;;;;;3.10;59.23;99409.75;4330368;32;33009;-91
2021/12/26 03:47:32;;;;;;;1.67;1.15;;;;;;;3.16;59.27;99415.72;4342193;32;32101;-90
2021/12/26 03:50:02;;;;;;;2.53;1.35;;;;;;;2.99;59.37;99407.34;4338986;32;32897;-88
2021/12/26 03:52:30;;;;;;;1.98;1.35;;;;;;;3.16;59.61;99407.88;4340468;33;33560;-88
2021/12/26 03:54:58;;;;;;;2.53;1.40;;;;;;;3.05;60.26;99407.25;4320558;33;34144;-87
2021/12/26 03:57:26;;;;;;;2.85;1.37;;;;;;;3.31;59.42;99410.19;4339054;33;33542;-87
2021/12/26 03:59:54;;;;;;;4.18;1.42;;;;;;;3.06;59.99;99406.34;4327492;33;34161;-88
2021/12/26 04:02:22;;;;;;;1.73;1.23;;;;;;;3.17;59.79;99412.22;4352110;32;33305;-88
2021/12/26 04:04:50;;;;;;;3.50;1.65;;;;;;;3.27;59.06;99411.12;4337613;33;33935;-88
2021/12/26 04:07:18;;;;;;;2.55;1.30;;;;;;;3.10;59.34;99410.62;4340108;33;33310;-88
2021/12/26 04:09:46;;;;;;;2.80;1.40;;;;;;;3.23;59.29;99411.22;4352392;32;32769;-89
2021/12/26 04:12:14;;;;;;;4.03;1.98;;;;;;;3.50;58.25;99407.19;4328908;33;32672;-89
2021/12/26 04:14:42;;;;;;;2.30;1.48;;;;;;;3.46;58.13;99405.53;4328377;33;33648;-90
2021/12/26 04:17:09;;;;;;;2.05;1.12;;;;;;;3.32;59.24;99405.81;4332741;33;32235;-91
2021/12/26 04:19:38;;;;;;;1.17;1.08;;;;;;;3.16;59.94;99405.28;4340794;33;32943;-92
2021/12/26 04:22:14;;;;;;;1.90;0.90;;;;;;;3.18;59.68;99406.13;4358271;32;33283;-90
2021/12/26 04:24:43;;;;;;;2.97;1.40;;;;;;;3.42;59.08;99411.69;4339470;33;32766;-90
2021/12/26 04:27:11;;;;;;;2.72;1.30;;;;;;;3.55;57.93;99407.94;4326645;33;32508;-90
2021/12/26 04:29:38;;;;;;;1.92;0.95;;;;;;;3.42;58.45;99411.69;4332239;33;32574;-90
2021/12/26 04:32:07;;;;;;;2.20;1.33;;;;;;;3.64;57.90;99412.97;4352368;32;33214;-88
2021/12/26 04:34:35;;;;;;;2.67;1.02;;;;;;;3.59;57.63;99413.06;4330859;32;33028;-88
2021/12/26 04:37:03;;;;;;;2.17;1.20;;;;;;;3.38;56.61;99416.16;4342726;33;31955;-88
2021/12/26 04:39:31;;;;;;;1.30;0.98;;;;;;;3.38;56.22;99423.13;4325829;33;33491;-90
2021/12/26 04:41:59;;;;;;;1.55;0.80;;;;;;;3.56;54.89;99440.97;4326206;33;34295;-89
2021/12/26 04:44:28;;;;;;;2.15;1.00;;;;;;;3.79;55.09;99436.13;4328578;33;32559;-88
2021/12/26 04:46:57;;;;;;;2.22;1.05;;;;;;;3.50;56.28;99435.91;4328895;33;33911;-89
2021/12/26 04:49:25;;;;;;;1.65;0.80;;;;;;;3.57;56.59;99438.38;4338176;33;32482;-88
2021/12/26 04:51:52;;;;;;;1.33;0.75;;;;;;;3.42;56.47;99443.03;4338489;33;34637;-88
2021/12/26 04:54:20;;;;;;;1.80;1.30;;;;;;;3.29;57.17;99447.66;4322770;33;35030;-88
2021/12/26 04:56:48;;;;;;;2.72;1.10;;;;;;;3.64;56.79;99448.66;4334748;33;31578;-88
2021/12/26 04:59:18;;;;;;;2.53;1.10;;;;;;;3.79;56.45;99443.97;4341974;33;33118;-88
2021/12/26 05:01:45;;;;;;;2.20;1.17;;;;;;;3.52;55.67;99449.78;4341820;32;33174;-91
2021/12/26 05:04:34;;;;;;;1.40;0.90;;;;;;;3.46;57.07;99457.72;4340379;33;33308;-91
2021/12/26 05:07:05;;;;;;;1.83;0.77;;;;;;;3.50;56.80;99452.41;4352702;32;33378;-87
2021/12/26 05:09:33;;;;;;;1.90;0.77;;;;;;;3.56;55.74;99454.03;4332156;33;33189;-87
2021/12/26 05:12:00;;;;;;;3.22;1.02;;;;;;;3.55;55.57;99449.72;4348040;32;33433;-87
2021/12/26 05:14:28;;;;;;;2.83;1.40;;;;;;;3.58;56.39;99452.28;4334921;33;32817;-87
2021/12/26 05:16:56;;;;;;;2.03;1.08;;;;;;;3.77;55.83;99461.44;4345904;33;32937;-87
2021/12/26 05:19:24;;;;;;;1.65;1.00;;;;;;;3.84;55.12;99459.53;4327146;33;32712;-89
2021/12/26 05:21:52;;;;;;;1.62;0.95;;;;;;;3.71;54.58;99472.00;4325762;33;33278;-89
2021/12/26 05:24:19;;;;;;;2.92;0.85;;;;;;;4.00;53.99;99473.13;4335603;33;33832;-89
2021/12/26 05:26:47;;;;;;;3.97;1.05;;;;;;;3.88;54.58;99473.41;4353048;32;33612;-88
2021/12/26 05:29:15;;;;;;;3.25;1.37;;;;;;;3.89;55.20;99469.88;4324751;33;33634;-86
2021/12/26 05:31:42;;;;;;;2.22;1.67;;;;;;;3.85;55.40;99479.56;4340639;33;33225;-88
2021/12/26 05:34:11;;;;;;;2.20;1.23;;;;;;;3.92;55.48;99477.66;4328355;33;34090;-88
2021/12/26 05:36:40;;;;;;;2.37;1.00;;;;;;;3.95;55.52;99477.59;4352367;32;33709;-88
2021/12/26 05:39:08;;;;;;;2.53;1.12;;;;;;;4.01;55.66;99495.75;4342630;33;33618;-87
2021/12/26 05:41:36;;;;;;;3.08;1.50;;;;;;;4.26;54.63;99491.69;4315249;33;33717;-88
2021/12/26 05:44:05;;;;;;;1.40;0.82;;;;;;;4.11;53.17;99484.19;4328390;33;33973;-88
2021/12/26 05:46:33;;;;;;;1.58;1.00;;;;;;;3.96;54.08;99489.78;4340625;33;31907;-87
2021/12/26 05:49:01;;;;;;;2.53;1.10;;;;;;;3.92;54.32;99490.72;4327658;33;34112;-87
2021/12/26 05:51:31;;;;;;;1.27;0.73;;;;;;;4.00;53.72;99494.91;4319897;33;34202;-87
2021/12/26 05:54:00;;;;;;;2.72;0.70;;;;;;;3.97;53.18;99499.31;4348954;32;32831;-87
2021/12/26 05:56:28;;;;;;;2.05;0.88;;;;;;;3.91;52.85;99499.47;4327050;33;32739;-88
2021/12/26 05:58:56;;;;;;;1.45;0.70;;;;;;;3.87;53.14;99498.66;4338951;33;32896;-88
2021/12/26 06:01:24;;;;;;;1.35;0.80;;;;;;;4.15;51.22;99498.91;4337023;33;32586;-88
2021/12/26 06:03:52;;;;;;;1.75;0.65;;;;;;;4.01;51.87;99500.97;4326605;33;32861;-88
2021/12/26 06:06:20;;;;;;;2.03;0.73;;;;;;;4.04;51.36;99512.22;4340357;33;33337;-88
2021/12/26 06:08:47;;;;;;;1.83;1.08;;;;;;;4.24;49.87;99511.78;4338438;32;33849;-88
2021/12/26 06:11:17;;;;;;;0.82;0.52;;;;;;;4.03;50.12;99515.69;4353137;32;33800;-87
2021/12/26 06:13:45;;;;;;;4.15;1.27;;;;;;;4.12;49.35;99522.50;4340418;33;34796;-87
2021/12/26 06:16:16;;;;;;;3.75;1.10;;;;;;;4.26;47.40;99516.97;4327898;33;32699;-87
2021/12/26 06:18:44;;;;;;;2.05;1.25;;;;;;;3.98;48.84;99519.31;4339446;33;34057;-87
2021/12/26 06:21:19;;;;;;;2.80;0.93;;;;;;;3.75;50.31;99519.78;4350992;32;34233;-88
2021/12/26 06:23:52;;;;;;;2.30;1.00;;;;;;;3.65;50.11;99531.31;4326015;33;33638;-87
2021/12/26 06:26:23;;;;;;;2.12;1.02;;;;;;;3.72;50.04;99520.72;4340441;33;33036;-87
2021/12/26 06:28:51;;;;;;;2.80;0.90;;;;;;;3.91;49.45;99530.81;4342005;33;37791;-86
2021/12/26 06:31:20;;;;;;;3.70;1.20;;;;;;;3.74;49.60;99525.91;4369594;32;35207;-87
2021/12/26 06:33:49;;;;;;;3.03;1.55;;;;;;;3.79;49.50;99542.34;4333946;33;33640;-87
2021/12/26 06:36:29;;;;;;;4.70;2.40;;;;;;;3.85;49.93;99537.03;4345386;33;33527;-87
2021/12/26 06:39:03;;;;;;;5.20;2.20;;;;;;;3.92;48.64;99533.38;4346011;33;32742;-87
2021/12/26 06:41:38;;;;;;;5.97;1.62;;;;;;;3.85;49.78;99537.88;4345169;33;32414;-87
2021/12/26 06:44:09;;;;;;;2.40;0.60;;;;;;;3.96;48.40;99547.22;4322208;33;33772;-87
2021/12/26 06:46:39;;;;;;;1.98;0.70;;;;;;;4.06;47.41;99547.00;4345350;33;32756;-88
2021/12/26 06:49:08;;;;;;;2.33;0.98;;;;;;;3.69;49.12;99552.13;4370754;32;34168;-88
2021/12/26 06:51:36;;;;;;;2.20;1.08;;;;;;;3.81;49.68;99556.25;4333604;33;32683;-88
2021/12/26 06:54:04;;;;;;;2.25;0.75;;;;;;;3.82;50.07;99547.50;4358477;32;32542;-88
2021/12/26 06:56:31;;;;;;;2.45;1.12;;;;;;;3.67;51.14;99555.66;4333650;32;33312;-88
2021/12/26 06:59:01;;;;;;;0.80;0.65;;;;;;;3.92;50.02;99550.81;4369314;32;32369;-88
2021/12/26 07:01:29;;;;;;;2.62;0.90;;;;;;;3.76;48.26;99553.72;4351656;32;32819;-89
2021/12/26 07:03:57;;;;;;;1.37;0.75;;;;;;;3.88;49.96;99556.97;4328113;32;34017;-87
2021/12/26 07:06:25;;;;;;;3.40;1.20;;;;;;;3.71;49.72;99557.34;4345886;32;33324;-91
2021/12/26 07:09:14;;;;;;;2.10;0.98;;;;;;;3.68;49.96;99560.84;4335244;33;33971;-91
2021/12/26 07:11:43;;;;;;;3.78;1.58;;;;;;;3.78;50.26;99567.59;4334338;32;33047;-92
2021/12/26 07:14:31;;;;;;;3.37;1.62;;;;;;;3.75;50.68;99567.69;4337132;32;32614;-91
2021/12/26 07:17:40;;;;;;;3.85;1.75;;;;;;;4.01;49.13;99566.28;4330305;33;31878;-91
2021/12/26 07:20:11;;;;;;;3.62;1.60;;;;;;;4.01;49.21;99561.06;4356616;32;33808;-90
2021/12/26 07:23:10;;;;;;;2.97;1.48;;;;;;;3.98;48.41;99569.81;4338531;33;33025;-90
2021/12/26 07:25:38;;;;;;;5.80;1.75;;;;;;;4.02;48.61;99574.09;4347002;33;34147;-91
2021/12/26 07:28:08;;;;;;;4.03;1.60;;;;;;;3.93;48.49;99574.25;4346662;33;31930;-90
2021/12/26 07:30:50;;;;;;;3.00;1.12;;;;;;;4.07;46.92;99573.97;4339785;33;33757;-90
2021/12/26 07:33:20;;;;;;;;;;;;;;;4.05;47.14;99573.16;4340041;33;33206;-90
2021/12/26 07:36:12;;;;;;;1.98;1.17;;;;;;;4.01;45.52;99577.59;4339882;33;32912;-90
2021/12/26 07:39:11;;;;;;;4.15;1.35;;;;;;;3.84;46.52;99577.06;4342216;32;32297;-90
2021/12/26 07:41:47;;;;;;;2.12;1.05;;;;;;;4.39;42.77;99581.16;4355454;32;34033;-90
2021/12/26 07:44:50;;;;;;;2.03;0.80;;;;;;;4.18;43.37;99582.47;4344979;33;32642;-90
2021/12/26 07:47:20;;;;;;;2.10;0.77;;;;;;;4.23;43.37;99572.78;4323675;32;32791;-90
2021/12/26 07:49:48;;;;;;;0.73;0.57;;;;;;;4.40;42.35;99576.78;4323939;33;33510;-90
2021/12/26 07:52:42;;;;;;;1.10;1.00;;;;;;;4.49;41.98;99579.19;4319138;33;32572;-90
2021/12/26 07:55:46;;;;;;;4.68;1.35;;;;;;;4.57;42.31;99580.72;4323157;33;32821;-91
2021/12/26 07:58:28;;;;;;;;;;;;;;;4.68;43.77;99584.84;4332570;33;32807;-86
2021/12/26 08:01:10;;;;;;;4.55;1.87;;;;;;;4.49;44.59;99598.34;4326736;33;32011;-94
2021/12/26 08:03:54;;;;;;;3.05;1.75;;;;;;;4.49;44.77;99593.09;4337832;33;32149;-93
2021/12/26 08:06:54;;;;;;;2.75;1.52;;;;;;;4.61;44.17;99599.84;4315439;33;34927;-91
2021/12/26 08:09:33;;;;;;;;;;;;;;;4.74;42.32;99593.41;4359645;32;33835;-92
2021/12/26 08:12:24;;;;;;;1.87;1.12;;;;;;;4.46;43.95;99592.31;4299084;33;32049;-92
2021/12/26 08:15:06;;;;;;;2.35;1.20;;;;;;;4.14;45.66;99596.50;4296259;33;32491;-92
2021/12/26 08:17:58;;;;;;;1.35;0.77;;;;;;;4.50;42.96;99588.75;4320969;33;34564;-92
2021/12/26 08:20:37;;;;;;;0.68;0.60;;;;;;;4.40;41.14;99577.62;4346241;33;32812;-93
2021/12/26 08:23:29;;;;;;;0.98;0.70;;;;;;;4.28;41.90;99584.00;4324910;33;33184;-91
2021/12/26 08:26:20;;;;;;;2.05;0.98;;;;;;;4.70;39.27;99586.56;4301226;33;32931;-92
2021/12/26 08:29:12;;;;;;;1.45;1.00;;;;;;;4.53;40.21;99586.94;4323150;33;33599;-92
2021/12/26 08:31:55;;;;;;;2.40;0.90;;;;;;;4.61;39.68;99582.37;4351623;32;32557;-93
2021/12/26 08:34:48;;;;;;;3.15;1.40;;;;;;;4.71;39.27;99587.41;4347632;33;32529;-93
2021/12/26 08:37:28;;;;;;;2.28;0.90;;;;;;;4.24;40.88;99603.25;4309868;33;33595;-92
2021/12/26 08:40:20;;;;;;;;;;;;;;;4.35;41.40;99603.88;4351398;32;32774;-92
2021/12/26 08:43:02;;;;;;;5.22;2.30;;;;;;;4.60;42.02;99601.59;4348436;32;33704;-93
2021/12/26 08:46:00;;;;;;;2.00;1.35;;;;;;;4.83;40.34;99608.88;4350322;32;32311;-90
2021/12/26 08:48:42;;;;;;;3.58;1.60;;;;;;;4.47;41.18;99617.59;4351969;32;32898;-91
2021/12/26 08:51:31;;;;;;;2.35;1.15;;;;;;;4.61;41.99;99612.91;4372511;32;32829;-91
2021/12/26 08:54:42;;;;;;;2.05;1.10;;;;;;;4.63;42.58;99609.34;4351736;32;33297;-92
2021/12/26 08:57:43;;;;;;;4.25;1.30;;;;;;;4.87;40.44;99600.06;4356726;32;34287;-92
2021/12/26 09:00:35;;;;;;;2.62;1.00;;;;;;;5.08;39.75;99603.06;4355005;32;31953;-93
2021/12/26 09:03:16;;;;;;;3.55;1.23;;;;;;;5.15;39.18;99602.03;4351210;32;33206;-92
2021/12/26 09:06:11;;;;;;;4.95;1.70;;;;;;;5.04;39.84;99601.44;4356007;32;33701;-92
2021/12/26 09:08:51;;;;;;;1.95;1.35;;;;;;;5.21;39.15;99594.00;4354995;32;33335;-92
2021/12/26 09:11:43;;;;;;;;;;;;;;;5.27;39.23;99586.03;4340553;32;32454;-92
2021/12/26 09:14:22;;;;;;;2.83;1.17;;;;;;;5.24;38.47;99582.63;4298120;33;33349;-92
2021/12/26 09:17:19;;;;;;;2.70;0.85;;;;;;;4.86;40.18;99585.28;4312775;33;32823;-95
2021/12/26 09:20:02;;;;;;;3.85;1.50;;;;;;;5.14;39.28;99587.22;4322780;33;32899;-94
2021/12/26 09:23:32;;;;;;;4.78;1.70;;;;;;;4.70;40.48;99581.31;4310624;33;34456;-93
2021/12/26 09:26:26;;;;;;;3.70;1.40;;;;;;;4.59;41.17;99583.31;4281922;33;33538;-92
2021/12/26 09:29:05;;;;;;;6.37;1.45;;;;;;;4.59;42.23;99578.06;4273830;33;34527;-92
2021/12/26 09:31:56;;;;;;;2.10;0.82;;;;;;;5.11;38.14;99576.81;4274234;33;31841;-93
2021/12/26 09:34:37;;;;;;;5.15;1.77;;;;;;;5.31;38.00;99579.78;4287407;33;104353;-93
2021/12/26 09:37:28;;;;;;;5.50;1.83;;;;;;;5.26;35.93;99581.66;4297783;33;20092;-93
2021/12/26 09:40:08;;;;;;;6.20;2.50;;;;;;;5.19;37.00;99580.13;4265629;33;33668;-93
2021/12/26 09:42:59;;;;;;;3.80;1.83;;;;;;;4.87;39.60;99579.16;4274609;33;33065;-93
2021/12/26 09:45:38;;;;;;;2.75;1.20;;;;;;;4.86;40.14;99585.28;4317572;33;32595;-94
2021/12/26 09:48:29;;;;;;;3.12;1.17;;;;;;;5.11;38.13;99585.53;4330850;32;33173;-93
2021/12/26 09:51:10;;;;;;;7.30;1.27;;;;;;;5.46;35.96;99578.56;4347849;32;32713;-93
2021/12/26 09:58:23;;;;;;;1.83;0.95;;;;;;;5.56;36.83;99569.56;4336029;33;33386;-93
2021/12/26 10:01:29;;;;;;;3.80;1.27;;;;;;;5.00;35.45;99564.03;4324099;33;33504;-92
2021/12/26 10:04:31;;;;;;;2.83;1.08;;;;;;;5.29;35.89;99567.66;4350870;32;33757;-94
2021/12/26 10:07:20;;;;;;;4.15;0.90;;;;;;;5.66;36.23;99559.69;4346664;32;32150;-93
2021/12/26 10:10:12;;;;;;;3.28;1.05;;;;;;;6.13;35.29;99547.88;4335449;33;32698;-93
2021/12/26 10:12:51;;;;;;;102.87;31.52;;;;;;;6.07;35.28;99549.81;4335334;33;32700;-93
2021/12/26 10:15:48;;;;;;;15.98;6.20;;;;;;;5.85;37.05;99562.66;4334099;33;34440;-93
2021/12/26 10:18:29;;;;;;;46.58;20.62;;;;;;;5.95;35.84;99543.16;4329147;33;32911;-93
2021/12/26 10:21:41;;;;;;;7.37;3.58;;;;;;;6.09;36.08;99548.88;4334053;33;33187;-94
2021/12/26 10:24:34;;;;;;;4.22;1.87;;;;;;;6.34;36.21;99548.12;4320577;33;34060;-93
2021/12/26 10:27:30;;;;;;;8.80;3.53;;;;;;;6.80;34.80;99542.31;4307502;33;32567;-92
2021/12/26 10:30:15;;;;;;;6.62;1.50;;;;;;;6.80;35.32;99539.69;4350805;32;32296;-92
2021/12/26 10:33:08;;;;;;;2.95;1.12;;;;;;;7.18;31.02;99527.03;4351469;32;32951;-92
2021/12/26 10:35:47;;;;;;;2.85;0.90;;;;;;;7.25;31.41;99527.69;4347805;33;32791;-92
2021/12/26 10:38:38;;;;;;;1.77;1.10;;;;;;;6.81;33.40;99533.50;4335258;33;32873;-92
2021/12/26 10:41:32;;;;;;;2.92;1.25;;;;;;;6.57;34.22;99529.91;4309857;33;33055;-93
2021/12/26 10:44:28;;;;;;;3.28;1.12;;;;;;;7.04;33.38;99530.13;4351544;32;33216;-93
2021/12/26 10:47:13;;;;;;;3.00;1.23;;;;;;;7.44;33.55;99526.97;4325274;33;33088;-93
2021/12/26 10:50:15;;;;;;;4.20;1.35;;;;;;;7.62;31.58;99512.34;4338354;33;33600;-92
2021/12/26 10:53:05;;;;;;;2.67;1.15;;;;;;;7.46;34.04;99526.94;4323253;33;33617;-92
2021/12/26 10:55:56;;;;;;;3.10;1.10;;;;;;;7.74;32.28;99524.19;4324832;33;32979;-93
2021/12/26 10:58:36;;;;;;;2.87;0.90;;;;;;;8.26;29.97;99519.59;4323194;33;33586;-93
2021/12/26 11:01:41;;;;;;;4.70;1.10;;;;;;;8.30;28.71;99520.31;4302265;33;32735;-93
2021/12/26 11:04:21;;;;;;;5.53;1.10;;;;;;;7.77;29.88;99526.69;4347984;33;33169;-92
2021/12/26 11:07:17;;;;;;;;;;;;;;;7.16;33.21;99528.84;4335754;33;32658;-92
2021/12/26 11:10:09;;;;;;;1.95;1.30;;;;;;;7.79;29.17;99527.50;4348859;33;34183;-94
2021/12/26 11:12:54;;;;;;;2.87;1.27;;;;;;;7.37;31.89;99532.53;4341590;32;32463;-94
2021/12/26 11:15:47;;;;;;;3.03;1.45;;;;;;;7.81;30.14;99520.41;4350677;32;31910;-92
2021/12/26 11:18:28;;;;;;;2.17;0.80;;;;;;;7.63;32.09;99521.06;4325171;33;32420;-94
2021/12/26 11:21:19;;;;;;;3.43;1.33;;;;;;;8.07;29.48;99518.56;4334723;33;33852;-94
2021/12/26 11:23:59;;;;;;;2.05;0.98;;;;;;;7.69;29.52;99519.09;4323370;33;33294;-94
2021/12/26 11:30:52;;;;;;;3.67;1.35;;;;;;;7.73;28.94;99518.97;4340702;33;32332;-89
2021/12/26 11:33:21;;;;;;;7.97;0.90;;;;;;;7.80;28.65;99507.31;4328070;33;32640;-88
2021/12/26 11:35:49;;;;;;;4.55;1.00;;;;;;;7.39;27.73;99505.28;4304068;33;33811;-88
2021/12/26 11:38:22;;;;;;;5.35;1.10;;;;;;;7.06;30.77;99519.56;4286911;33;33077;-88
2021/12/26 11:41:06;;;;;;;3.08;1.02;;;;;;;7.01;29.24;99524.12;4336267;32;35004;-88
2021/12/26 11:43:55;;;;;;;3.60;1.37;;;;;;;7.03;28.89;99528.41;4316665;33;32636;-87
2021/12/26 11:46:58;;;;;;;2.45;1.10;;;;;;;6.93;29.01;99533.12;4336105;32;34073;-88
2021/12/26 11:49:49;;;;;;;1.42;0.82;;;;;;;6.74;31.96;99541.63;4337955;33;32171;-88
2021/12/26 11:52:43;;;;;;;3.35;1.30;;;;;;;6.80;27.72;99539.69;4324417;33;33717;-88
2021/12/26 11:55:28;;;;;;;3.95;0.80;;;;;;;7.02;27.81;99545.06;4325845;33;35683;-88
2021/12/26 11:58:23;;;;;;;1.73;0.90;;;;;;;6.70;30.83;99546.13;4327467;33;33168;-88
2021/12/26 12:00:53;;;;;;;1.52;0.77;;;;;;;6.71;30.29;99539.97;4315963;33;32390;-88
2021/12/26 12:03:30;;;;;;;2.10;0.88;;;;;;;6.67;31.72;99546.22;4303955;33;34069;-88
2021/12/26 12:05:59;;;;;;;5.45;1.15;;;;;;;6.64;33.73;99543.69;4303731;33;33630;-88
2021/12/26 12:08:30;;;;;;;2.65;0.98;;;;;;;6.95;33.00;99547.97;4314561;33;32409;-88
2021/12/26 12:11:01;;;;;;;2.17;1.20;;;;;;;7.33;30.06;99542.25;4303585;33;33554;-88
2021/12/26 12:13:38;;;;;;;1.60;0.85;;;;;;;7.15;31.57;99548.12;4303606;33;33621;-88
2021/12/26 12:16:10;;;;;;;3.40;1.15;;;;;;;7.07;32.53;99555.41;4337578;33;33013;-88
2021/12/26 12:18:52;;;;;;;3.80;1.37;;;;;;;6.68;34.42;99553.16;4326810;33;32534;-88
2021/12/26 12:21:33;;;;;;;6.62;0.90;;;;;;;6.44;34.45;99548.69;4303773;33;33283;-88
2021/12/26 12:24:15;;;;;;;2.62;1.52;;;;;;;6.33;32.16;99549.03;4327081;33;33302;-88
2021/12/26 12:26:51;;;;;;;1.35;0.82;;;;;;;6.85;32.67;99545.63;4340474;33;33982;-88
2021/12/26 12:29:29;;;;;;;2.75;1.25;;;;;;;7.44;29.41;99539.25;4341651;33;33811;-88
2021/12/26 12:32:08;;;;;;;1.58;0.60;;;;;;;7.42;28.68;99541.94;4332355;33;32746;-88
2021/12/26 12:35:04;;;;;;;4.07;1.60;;;;;;;6.77;31.69;99537.13;4343252;33;32652;-88
2021/12/26 12:37:42;;;;;;;3.83;1.25;;;;;;;7.03;31.80;99535.44;4332691;33;32486;-88
2021/12/26 12:40:30;;;;;;;1.85;0.95;;;;;;;7.25;32.91;99523.28;4330955;33;33444;-88
2021/12/26 12:43:08;;;;;;;6.05;1.40;;;;;;;7.28;31.82;99523.19;4330448;33;32191;-88
2021/12/26 12:48:27;;;;;;;5.53;1.70;;;;;;;7.36;30.56;99510.66;4330997;33;32962;-88